Rb Jordana — V7NB2 — position and weather

sailwx.info

Track history (hours):
 
Tides and Currents Weather Stations Pressure Air Temp Water Temp Dewpoint Dewpoint Depression Visibility Wind Speed Wind Dir Waves Ship Positions

Rb Jordana

Last reported at 2018-Jun-13 11:42 UTC. Time now 2018-Jun-20 05:18 UTC.
Position S 33°56' E 018°05'.

Length 229 m; draft 14.6 m.

Type: Cargo ship. MMSI: 538006431.

Date/timePositionNaut miles runAvg speedWind from/ knotsBaromVisibWave heightAir tempDewpointWater temp
2018-Jun-13 11:42S 33°56' E 018°05'912.9
2018-Jun-13 11:02S 34°04' E 018°07'013.2
2018-Jun-13 11:00S 34°04' E 018°07'713.1
2018-Jun-13 10:30S 34°11' E 018°09'612.9
2018-Jun-13 10:00S 34°17' E 018°11'612.7
2018-Jun-13 09:30S 34°22' E 018°15'612.2
2018-Jun-13 09:00S 34°27' E 018°19'611.8
2018-Jun-13 08:30S 34°31' E 018°25'611.7
2018-Jun-13 08:00S 34°34' E 018°31'611.8
2018-Jun-13 07:30S 34°37' E 018°37'611.8
2018-Jun-13 07:00S 34°39' E 018°44'611.5
2018-Jun-13 06:30S 34°41' E 018°51'911.2
2018-Jun-13 05:40S 34°44' E 019°01'211.4
2018-Jun-13 05:28S 34°45' E 019°04'611.5
2018-Jun-13 04:57S 34°47' E 019°11'  
2018-Jun-10 20:44S 30°26' E 031°10'312.3
2018-Jun-10 20:29S 30°24' E 031°12'612.3
2018-Jun-10 20:00S 30°20' E 031°16'612.4
2018-Jun-10 19:30S 30°15' E 031°21'612.5
2018-Jun-10 19:00S 30°10' E 031°26'612.7
2018-Jun-10 18:31S 30°05' E 031°31'713.0
2018-Jun-10 18:00S 30°00' E 031°36'613.3
2018-Jun-10 17:31S 29°56' E 031°41'713.6
2018-Jun-10 17:00S 29°50' E 031°46'713.4
2018-Jun-10 16:28S 29°45' E 031°51'613.4
2018-Jun-10 15:59S 29°40' E 031°56'  
Track history (hours):
 
Tides and Currents Weather Stations Pressure Air Temp Water Temp Dewpoint Dewpoint Depression Visibility Wind Speed Wind Dir Waves Ship Positions

Rb Jordana

Last reported at 2018-Jun-13 11:42 UTC. Time now 2018-Jun-20 05:18 UTC.
Position S 33°56' E 018°05'.

Length 229 m; draft 14.6 m.

Type: Cargo ship. MMSI: 538006431.

Date/timePositionNaut miles runAvg speedWind from/ knotsBaromVisibWave heightAir tempDewpointWater temp
2018-Jun-13 11:42S 33°56' E 018°05'912.9
2018-Jun-13 11:02S 34°04' E 018°07'013.2
2018-Jun-13 11:00S 34°04' E 018°07'713.1
2018-Jun-13 10:30S 34°11' E 018°09'612.9
2018-Jun-13 10:00S 34°17' E 018°11'612.7
2018-Jun-13 09:30S 34°22' E 018°15'612.2
2018-Jun-13 09:00S 34°27' E 018°19'611.8
2018-Jun-13 08:30S 34°31' E 018°25'611.7
2018-Jun-13 08:00S 34°34' E 018°31'611.8
2018-Jun-13 07:30S 34°37' E 018°37'611.8
2018-Jun-13 07:00S 34°39' E 018°44'611.5
2018-Jun-13 06:30S 34°41' E 018°51'911.2
2018-Jun-13 05:40S 34°44' E 019°01'211.4
2018-Jun-13 05:28S 34°45' E 019°04'611.5
2018-Jun-13 04:57S 34°47' E 019°11'  
2018-Jun-10 20:44S 30°26' E 031°10'312.3
2018-Jun-10 20:29S 30°24' E 031°12'612.3
2018-Jun-10 20:00S 30°20' E 031°16'612.4
2018-Jun-10 19:30S 30°15' E 031°21'612.5
2018-Jun-10 19:00S 30°10' E 031°26'612.7
2018-Jun-10 18:31S 30°05' E 031°31'713.0
2018-Jun-10 18:00S 30°00' E 031°36'613.3
2018-Jun-10 17:31S 29°56' E 031°41'713.6
2018-Jun-10 17:00S 29°50' E 031°46'713.4
2018-Jun-10 16:28S 29°45' E 031°51'613.4
2018-Jun-10 15:59S 29°40' E 031°56'  

Dump ship's entire track history